sensor_id;sensor_type;location;lat;lon;timestamp;P1;durP1;ratioP1;P2;durP2;ratioP2
72864;SDS011;61000;48.120;11.548;2024-03-07T00:01:07;18.40;;;12.27;;
72864;SDS011;61000;48.120;11.548;2024-03-07T00:03:34;21.15;;;13.40;;
72864;SDS011;61000;48.120;11.548;2024-03-07T00:06:01;20.25;;;13.02;;
72864;SDS011;61000;48.120;11.548;2024-03-07T00:08:28;17.83;;;11.50;;
72864;SDS011;61000;48.120;11.548;2024-03-07T00:10:55;18.25;;;12.32;;
72864;SDS011;61000;48.120;11.548;2024-03-07T00:13:22;19.58;;;12.07;;
72864;SDS011;61000;48.120;11.548;2024-03-07T00:15:51;20.52;;;12.93;;
72864;SDS011;61000;48.120;11.548;2024-03-07T00:18:18;19.17;;;12.13;;
72864;SDS011;61000;48.120;11.548;2024-03-07T00:20:45;23.55;;;13.80;;
72864;SDS011;61000;48.120;11.548;2024-03-07T00:23:12;21.75;;;13.70;;
72864;SDS011;61000;48.120;11.548;2024-03-07T00:25:39;21.25;;;13.40;;
72864;SDS011;61000;48.120;11.548;2024-03-07T00:28:06;21.33;;;13.48;;
72864;SDS011;61000;48.120;11.548;2024-03-07T00:30:33;19.27;;;13.75;;
72864;SDS011;61000;48.120;11.548;2024-03-07T00:33:01;23.33;;;14.18;;
72864;SDS011;61000;48.120;11.548;2024-03-07T00:35:28;22.73;;;14.10;;
72864;SDS011;61000;48.120;11.548;2024-03-07T00:37:55;28.27;;;14.68;;
72864;SDS011;61000;48.120;11.548;2024-03-07T00:40:22;24.42;;;15.13;;
72864;SDS011;61000;48.120;11.548;2024-03-07T00:42:49;24.00;;;14.40;;
72864;SDS011;61000;48.120;11.548;2024-03-07T00:45:16;26.13;;;15.70;;
72864;SDS011;61000;48.120;11.548;2024-03-07T00:47:43;27.40;;;16.23;;
72864;SDS011;61000;48.120;11.548;2024-03-07T00:50:11;25.95;;;15.25;;
72864;SDS011;61000;48.120;11.548;2024-03-07T00:52:38;29.10;;;16.40;;
72864;SDS011;61000;48.120;11.548;2024-03-07T00:55:06;26.67;;;16.42;;
72864;SDS011;61000;48.120;11.548;2024-03-07T00:57:34;28.00;;;15.18;;
72864;SDS011;61000;48.120;11.548;2024-03-07T01:00:01;26.40;;;15.55;;
72864;SDS011;61000;48.120;11.548;2024-03-07T01:02:28;25.50;;;14.68;;
72864;SDS011;61000;48.120;11.548;2024-03-07T01:04:56;25.33;;;14.57;;
72864;SDS011;61000;48.120;11.548;2024-03-07T01:07:24;25.63;;;15.60;;
72864;SDS011;61000;48.120;11.548;2024-03-07T01:09:53;27.52;;;15.73;;
72864;SDS011;61000;48.120;11.548;2024-03-07T01:12:20;27.00;;;15.55;;
72864;SDS011;61000;48.120;11.548;2024-03-07T01:14:49;25.67;;;16.00;;
72864;SDS011;61000;48.120;11.548;2024-03-07T01:17:16;28.45;;;16.38;;
72864;SDS011;61000;48.120;11.548;2024-03-07T01:19:43;27.88;;;16.20;;
72864;SDS011;61000;48.120;11.548;2024-03-07T01:22:10;28.58;;;16.08;;
72864;SDS011;61000;48.120;11.548;2024-03-07T01:24:38;29.58;;;16.20;;
72864;SDS011;61000;48.120;11.548;2024-03-07T01:27:05;31.35;;;16.50;;
72864;SDS011;61000;48.120;11.548;2024-03-07T01:29:32;26.73;;;15.70;;
72864;SDS011;61000;48.120;11.548;2024-03-07T01:31:59;30.95;;;15.73;;
72864;SDS011;61000;48.120;11.548;2024-03-07T01:34:28;32.15;;;17.70;;
72864;SDS011;61000;48.120;11.548;2024-03-07T01:36:55;28.90;;;16.33;;
72864;SDS011;61000;48.120;11.548;2024-03-07T01:39:21;27.58;;;16.55;;
72864;SDS011;61000;48.120;11.548;2024-03-07T01:41:50;31.65;;;16.92;;
72864;SDS011;61000;48.120;11.548;2024-03-07T01:44:16;36.20;;;17.08;;
72864;SDS011;61000;48.120;11.548;2024-03-07T01:46:43;34.03;;;17.90;;
72864;SDS011;61000;48.120;11.548;2024-03-07T01:49:11;34.78;;;18.05;;
72864;SDS011;61000;48.120;11.548;2024-03-07T01:51:38;32.78;;;18.90;;
72864;SDS011;61000;48.120;11.548;2024-03-07T01:54:06;36.03;;;17.90;;
72864;SDS011;61000;48.120;11.548;2024-03-07T01:56:34;34.95;;;18.23;;
72864;SDS011;61000;48.120;11.548;2024-03-07T01:59:04;34.55;;;19.02;;
72864;SDS011;61000;48.120;11.548;2024-03-07T02:01:33;38.10;;;19.35;;
72864;SDS011;61000;48.120;11.548;2024-03-07T02:04:01;35.85;;;19.60;;
72864;SDS011;61000;48.120;11.548;2024-03-07T02:06:29;38.10;;;18.60;;
72864;SDS011;61000;48.120;11.548;2024-03-07T02:08:56;34.50;;;18.23;;
72864;SDS011;61000;48.120;11.548;2024-03-07T02:11:23;41.47;;;20.42;;
72864;SDS011;61000;48.120;11.548;2024-03-07T02:13:50;36.65;;;19.80;;
72864;SDS011;61000;48.120;11.548;2024-03-07T02:16:18;41.42;;;19.88;;
72864;SDS011;61000;48.120;11.548;2024-03-07T02:18:46;39.95;;;21.58;;
72864;SDS011;61000;48.120;11.548;2024-03-07T02:21:14;37.78;;;20.42;;
72864;SDS011;61000;48.120;11.548;2024-03-07T02:23:41;39.28;;;20.35;;
72864;SDS011;61000;48.120;11.548;2024-03-07T02:26:09;36.03;;;21.13;;
72864;SDS011;61000;48.120;11.548;2024-03-07T02:28:35;34.42;;;19.88;;
72864;SDS011;61000;48.120;11.548;2024-03-07T02:31:02;34.53;;;19.77;;
72864;SDS011;61000;48.120;11.548;2024-03-07T02:33:29;37.15;;;20.02;;
72864;SDS011;61000;48.120;11.548;2024-03-07T02:35:57;39.55;;;20.48;;
72864;SDS011;61000;48.120;11.548;2024-03-07T02:38:25;38.22;;;21.50;;
72864;SDS011;61000;48.120;11.548;2024-03-07T02:40:52;39.40;;;20.05;;
72864;SDS011;61000;48.120;11.548;2024-03-07T02:43:19;41.20;;;21.05;;
72864;SDS011;61000;48.120;11.548;2024-03-07T02:45:46;39.85;;;21.30;;
72864;SDS011;61000;48.120;11.548;2024-03-07T02:48:14;41.95;;;21.65;;
72864;SDS011;61000;48.120;11.548;2024-03-07T02:50:43;42.20;;;20.15;;
72864;SDS011;61000;48.120;11.548;2024-03-07T02:53:10;44.90;;;21.48;;
72864;SDS011;61000;48.120;11.548;2024-03-07T02:55:38;44.28;;;21.67;;
72864;SDS011;61000;48.120;11.548;2024-03-07T02:58:06;41.47;;;21.35;;
72864;SDS011;61000;48.120;11.548;2024-03-07T03:00:33;39.15;;;20.70;;
72864;SDS011;61000;48.120;11.548;2024-03-07T03:03:00;37.97;;;20.92;;
72864;SDS011;61000;48.120;11.548;2024-03-07T03:05:27;41.45;;;21.83;;
72864;SDS011;61000;48.120;11.548;2024-03-07T03:07:55;45.05;;;24.27;;
72864;SDS011;61000;48.120;11.548;2024-03-07T03:10:22;45.95;;;25.02;;
72864;SDS011;61000;48.120;11.548;2024-03-07T03:12:53;46.50;;;23.90;;
72864;SDS011;61000;48.120;11.548;2024-03-07T03:15:20;45.40;;;24.35;;
72864;SDS011;61000;48.120;11.548;2024-03-07T03:17:47;46.55;;;26.30;;
72864;SDS011;61000;48.120;11.548;2024-03-07T03:20:14;49.97;;;26.33;;
72864;SDS011;61000;48.120;11.548;2024-03-07T03:22:50;45.67;;;26.02;;
72864;SDS011;61000;48.120;11.548;2024-03-07T03:25:17;48.17;;;25.10;;
72864;SDS011;61000;48.120;11.548;2024-03-07T03:27:45;48.15;;;26.65;;
72864;SDS011;61000;48.120;11.548;2024-03-07T03:30:13;45.42;;;25.50;;
72864;SDS011;61000;48.120;11.548;2024-03-07T03:32:43;49.28;;;24.35;;
72864;SDS011;61000;48.120;11.548;2024-03-07T03:35:11;44.50;;;23.60;;
72864;SDS011;61000;48.120;11.548;2024-03-07T03:37:39;47.10;;;26.02;;
72864;SDS011;61000;48.120;11.548;2024-03-07T03:40:07;50.10;;;26.02;;
72864;SDS011;61000;48.120;11.548;2024-03-07T03:42:35;42.78;;;23.73;;
72864;SDS011;61000;48.120;11.548;2024-03-07T03:45:03;56.50;;;26.45;;
72864;SDS011;61000;48.120;11.548;2024-03-07T03:47:34;51.35;;;28.20;;
72864;SDS011;61000;48.120;11.548;2024-03-07T03:50:05;50.88;;;26.80;;
72864;SDS011;61000;48.120;11.548;2024-03-07T03:52:32;48.13;;;26.48;;
72864;SDS011;61000;48.120;11.548;2024-03-07T03:55:00;52.47;;;25.75;;
72864;SDS011;61000;48.120;11.548;2024-03-07T03:57:28;51.63;;;27.77;;
72864;SDS011;61000;48.120;11.548;2024-03-07T03:59:55;55.85;;;28.30;;
72864;SDS011;61000;48.120;11.548;2024-03-07T04:02:22;52.58;;;28.23;;
72864;SDS011;61000;48.120;11.548;2024-03-07T04:04:51;51.40;;;26.83;;
72864;SDS011;61000;48.120;11.548;2024-03-07T04:07:18;46.90;;;26.98;;
72864;SDS011;61000;48.120;11.548;2024-03-07T04:09:46;50.30;;;28.08;;
72864;SDS011;61000;48.120;11.548;2024-03-07T04:12:13;45.97;;;25.73;;
72864;SDS011;61000;48.120;11.548;2024-03-07T04:14:40;48.85;;;25.27;;
72864;SDS011;61000;48.120;11.548;2024-03-07T04:17:07;47.72;;;26.00;;
72864;SDS011;61000;48.120;11.548;2024-03-07T04:19:37;49.47;;;26.83;;
72864;SDS011;61000;48.120;11.548;2024-03-07T04:22:06;48.97;;;27.67;;
72864;SDS011;61000;48.120;11.548;2024-03-07T04:24:34;49.42;;;26.95;;
72864;SDS011;61000;48.120;11.548;2024-03-07T04:27:01;56.95;;;28.33;;
72864;SDS011;61000;48.120;11.548;2024-03-07T04:29:30;50.40;;;26.92;;
72864;SDS011;61000;48.120;11.548;2024-03-07T04:31:55;52.70;;;28.17;;
72864;SDS011;61000;48.120;11.548;2024-03-07T04:34:23;54.53;;;27.65;;
72864;SDS011;61000;48.120;11.548;2024-03-07T04:36:49;49.10;;;26.15;;
72864;SDS011;61000;48.120;11.548;2024-03-07T04:39:18;49.15;;;27.63;;
72864;SDS011;61000;48.120;11.548;2024-03-07T04:41:55;54.88;;;27.95;;
72864;SDS011;61000;48.120;11.548;2024-03-07T04:44:22;52.90;;;28.23;;
72864;SDS011;61000;48.120;11.548;2024-03-07T04:46:50;54.95;;;28.63;;
72864;SDS011;61000;48.120;11.548;2024-03-07T04:49:20;58.97;;;29.80;;
72864;SDS011;61000;48.120;11.548;2024-03-07T04:51:48;57.63;;;29.38;;
72864;SDS011;61000;48.120;11.548;2024-03-07T04:54:15;53.28;;;28.55;;
72864;SDS011;61000;48.120;11.548;2024-03-07T04:56:43;55.30;;;28.48;;
72864;SDS011;61000;48.120;11.548;2024-03-07T04:59:10;53.45;;;27.45;;
72864;SDS011;61000;48.120;11.548;2024-03-07T05:01:37;53.13;;;30.20;;
72864;SDS011;61000;48.120;11.548;2024-03-07T05:04:04;52.40;;;28.83;;
72864;SDS011;61000;48.120;11.548;2024-03-07T05:06:32;54.60;;;29.00;;
72864;SDS011;61000;48.120;11.548;2024-03-07T05:08:59;60.85;;;30.70;;
72864;SDS011;61000;48.120;11.548;2024-03-07T05:11:28;50.47;;;27.88;;
72864;SDS011;61000;48.120;11.548;2024-03-07T05:13:56;57.50;;;31.23;;
72864;SDS011;61000;48.120;11.548;2024-03-07T05:16:23;59.63;;;30.55;;
72864;SDS011;61000;48.120;11.548;2024-03-07T05:18:51;55.25;;;29.92;;
72864;SDS011;61000;48.120;11.548;2024-03-07T05:21:18;57.67;;;30.27;;
72864;SDS011;61000;48.120;11.548;2024-03-07T05:24:03;54.95;;;29.83;;
72864;SDS011;61000;48.120;11.548;2024-03-07T05:26:30;55.55;;;28.23;;
72864;SDS011;61000;48.120;11.548;2024-03-07T05:29:02;60.88;;;30.15;;
72864;SDS011;61000;48.120;11.548;2024-03-07T05:31:32;55.97;;;29.27;;
72864;SDS011;61000;48.120;11.548;2024-03-07T05:34:00;70.43;;;34.28;;
72864;SDS011;61000;48.120;11.548;2024-03-07T05:36:29;60.55;;;30.77;;
72864;SDS011;61000;48.120;11.548;2024-03-07T05:38:57;59.58;;;30.70;;
72864;SDS011;61000;48.120;11.548;2024-03-07T05:41:24;63.28;;;32.78;;
72864;SDS011;61000;48.120;11.548;2024-03-07T05:43:54;59.00;;;30.45;;
72864;SDS011;61000;48.120;11.548;2024-03-07T05:46:23;54.05;;;28.80;;
72864;SDS011;61000;48.120;11.548;2024-03-07T05:48:50;54.78;;;29.95;;
72864;SDS011;61000;48.120;11.548;2024-03-07T05:51:21;65.00;;;32.47;;
72864;SDS011;61000;48.120;11.548;2024-03-07T05:53:48;66.95;;;32.03;;
72864;SDS011;61000;48.120;11.548;2024-03-07T05:56:16;55.38;;;30.15;;
72864;SDS011;61000;48.120;11.548;2024-03-07T05:58:43;63.67;;;32.03;;
72864;SDS011;61000;48.120;11.548;2024-03-07T06:01:10;66.38;;;34.45;;
72864;SDS011;61000;48.120;11.548;2024-03-07T06:03:39;60.53;;;30.58;;
72864;SDS011;61000;48.120;11.548;2024-03-07T06:06:06;62.25;;;32.67;;
72864;SDS011;61000;48.120;11.548;2024-03-07T06:08:36;58.75;;;31.27;;
72864;SDS011;61000;48.120;11.548;2024-03-07T06:11:03;74.13;;;34.42;;
72864;SDS011;61000;48.120;11.548;2024-03-07T06:13:31;74.38;;;34.85;;
72864;SDS011;61000;48.120;11.548;2024-03-07T06:15:57;62.25;;;33.45;;
72864;SDS011;61000;48.120;11.548;2024-03-07T06:18:26;65.90;;;32.95;;
72864;SDS011;61000;48.120;11.548;2024-03-07T06:20:57;62.65;;;31.17;;
72864;SDS011;61000;48.120;11.548;2024-03-07T06:23:24;62.80;;;31.33;;
72864;SDS011;61000;48.120;11.548;2024-03-07T06:25:53;70.35;;;34.17;;
72864;SDS011;61000;48.120;11.548;2024-03-07T06:28:23;62.70;;;32.22;;
72864;SDS011;61000;48.120;11.548;2024-03-07T06:30:50;67.38;;;34.45;;
72864;SDS011;61000;48.120;11.548;2024-03-07T06:33:17;67.90;;;33.47;;
72864;SDS011;61000;48.120;11.548;2024-03-07T06:35:44;64.88;;;31.77;;
72864;SDS011;61000;48.120;11.548;2024-03-07T06:38:12;58.58;;;31.48;;
72864;SDS011;61000;48.120;11.548;2024-03-07T06:40:39;61.58;;;30.98;;
72864;SDS011;61000;48.120;11.548;2024-03-07T06:43:08;63.13;;;33.08;;
72864;SDS011;61000;48.120;11.548;2024-03-07T06:45:36;67.68;;;33.83;;
72864;SDS011;61000;48.120;11.548;2024-03-07T06:48:04;59.58;;;31.45;;
72864;SDS011;61000;48.120;11.548;2024-03-07T06:50:32;61.40;;;32.15;;
72864;SDS011;61000;48.120;11.548;2024-03-07T06:53:00;62.17;;;32.47;;
72864;SDS011;61000;48.120;11.548;2024-03-07T06:55:28;60.50;;;31.77;;
72864;SDS011;61000;48.120;11.548;2024-03-07T06:57:55;56.13;;;29.70;;
72864;SDS011;61000;48.120;11.548;2024-03-07T07:00:22;59.45;;;32.35;;
72864;SDS011;61000;48.120;11.548;2024-03-07T07:02:51;67.22;;;32.40;;
72864;SDS011;61000;48.120;11.548;2024-03-07T07:05:19;65.20;;;32.22;;
72864;SDS011;61000;48.120;11.548;2024-03-07T07:07:48;64.50;;;32.88;;
72864;SDS011;61000;48.120;11.548;2024-03-07T07:10:16;60.58;;;31.63;;
72864;SDS011;61000;48.120;11.548;2024-03-07T07:12:44;62.13;;;31.88;;
72864;SDS011;61000;48.120;11.548;2024-03-07T07:15:13;62.85;;;31.67;;
72864;SDS011;61000;48.120;11.548;2024-03-07T07:17:40;60.08;;;31.75;;
72864;SDS011;61000;48.120;11.548;2024-03-07T07:20:10;60.88;;;31.65;;
72864;SDS011;61000;48.120;11.548;2024-03-07T07:22:40;55.38;;;30.05;;
72864;SDS011;61000;48.120;11.548;2024-03-07T07:25:07;64.38;;;32.85;;
72864;SDS011;61000;48.120;11.548;2024-03-07T07:27:39;56.35;;;28.45;;
72864;SDS011;61000;48.120;11.548;2024-03-07T07:30:09;65.13;;;31.80;;
72864;SDS011;61000;48.120;11.548;2024-03-07T07:32:37;58.80;;;30.77;;
72864;SDS011;61000;48.120;11.548;2024-03-07T07:35:05;57.40;;;30.88;;
72864;SDS011;61000;48.120;11.548;2024-03-07T07:37:36;62.10;;;30.58;;
72864;SDS011;61000;48.120;11.548;2024-03-07T07:40:04;57.35;;;29.58;;
72864;SDS011;61000;48.120;11.548;2024-03-07T07:42:33;60.80;;;32.45;;
72864;SDS011;61000;48.120;11.548;2024-03-07T07:45:04;58.47;;;30.88;;
72864;SDS011;61000;48.120;11.548;2024-03-07T07:47:34;54.65;;;29.17;;
72864;SDS011;61000;48.120;11.548;2024-03-07T07:50:03;59.67;;;30.88;;
72864;SDS011;61000;48.120;11.548;2024-03-07T07:52:32;54.42;;;29.50;;
72864;SDS011;61000;48.120;11.548;2024-03-07T07:55:00;58.13;;;31.35;;
72864;SDS011;61000;48.120;11.548;2024-03-07T07:57:27;61.00;;;29.67;;
72864;SDS011;61000;48.120;11.548;2024-03-07T07:59:54;52.92;;;29.58;;
72864;SDS011;61000;48.120;11.548;2024-03-07T08:02:21;55.72;;;30.95;;
72864;SDS011;61000;48.120;11.548;2024-03-07T08:04:49;62.08;;;30.55;;
72864;SDS011;61000;48.120;11.548;2024-03-07T08:07:16;58.00;;;30.80;;
72864;SDS011;61000;48.120;11.548;2024-03-07T08:09:43;64.68;;;30.73;;
72864;SDS011;61000;48.120;11.548;2024-03-07T08:12:10;54.65;;;30.08;;
72864;SDS011;61000;48.120;11.548;2024-03-07T08:14:37;55.03;;;29.83;;
72864;SDS011;61000;48.120;11.548;2024-03-07T08:17:04;55.55;;;30.33;;
72864;SDS011;61000;48.120;11.548;2024-03-07T08:19:31;62.50;;;30.65;;
72864;SDS011;61000;48.120;11.548;2024-03-07T08:21:59;58.40;;;30.63;;
72864;SDS011;61000;48.120;11.548;2024-03-07T08:24:27;58.00;;;28.98;;
72864;SDS011;61000;48.120;11.548;2024-03-07T08:27:07;60.22;;;30.65;;
72864;SDS011;61000;48.120;11.548;2024-03-07T08:29:36;63.17;;;31.17;;
72864;SDS011;61000;48.120;11.548;2024-03-07T08:32:07;59.33;;;30.05;;
72864;SDS011;61000;48.120;11.548;2024-03-07T08:34:34;53.88;;;30.58;;
72864;SDS011;61000;48.120;11.548;2024-03-07T08:37:02;51.83;;;28.20;;
72864;SDS011;61000;48.120;11.548;2024-03-07T08:39:30;58.55;;;30.15;;
72864;SDS011;61000;48.120;11.548;2024-03-07T08:41:57;52.97;;;31.27;;
72864;SDS011;61000;48.120;11.548;2024-03-07T08:44:26;56.90;;;30.20;;
72864;SDS011;61000;48.120;11.548;2024-03-07T08:46:53;61.88;;;31.27;;
72864;SDS011;61000;48.120;11.548;2024-03-07T08:49:20;62.17;;;31.15;;
72864;SDS011;61000;48.120;11.548;2024-03-07T08:51:47;62.08;;;31.05;;
72864;SDS011;61000;48.120;11.548;2024-03-07T08:54:16;61.90;;;32.55;;
72864;SDS011;61000;48.120;11.548;2024-03-07T08:56:42;58.53;;;31.23;;
72864;SDS011;61000;48.120;11.548;2024-03-07T08:59:10;56.50;;;28.92;;
72864;SDS011;61000;48.120;11.548;2024-03-07T09:01:40;53.80;;;29.38;;
72864;SDS011;61000;48.120;11.548;2024-03-07T09:04:08;55.72;;;30.60;;
72864;SDS011;61000;48.120;11.548;2024-03-07T09:06:37;55.38;;;29.20;;
72864;SDS011;61000;48.120;11.548;2024-03-07T09:09:03;57.33;;;30.50;;
72864;SDS011;61000;48.120;11.548;2024-03-07T09:11:35;55.42;;;29.63;;
72864;SDS011;61000;48.120;11.548;2024-03-07T09:14:02;57.40;;;30.58;;
72864;SDS011;61000;48.120;11.548;2024-03-07T09:16:34;55.45;;;30.33;;
72864;SDS011;61000;48.120;11.548;2024-03-07T09:19:01;52.65;;;28.42;;
72864;SDS011;61000;48.120;11.548;2024-03-07T09:21:29;54.45;;;28.88;;
72864;SDS011;61000;48.120;11.548;2024-03-07T09:23:56;54.13;;;29.67;;
72864;SDS011;61000;48.120;11.548;2024-03-07T09:26:22;60.33;;;29.08;;
72864;SDS011;61000;48.120;11.548;2024-03-07T09:28:51;58.03;;;31.40;;
72864;SDS011;61000;48.120;11.548;2024-03-07T09:31:20;55.10;;;28.90;;
72864;SDS011;61000;48.120;11.548;2024-03-07T09:33:47;49.88;;;26.95;;
72864;SDS011;61000;48.120;11.548;2024-03-07T09:36:14;55.00;;;28.05;;
72864;SDS011;61000;48.120;11.548;2024-03-07T09:38:43;53.55;;;28.75;;
72864;SDS011;61000;48.120;11.548;2024-03-07T09:41:10;51.08;;;28.33;;
72864;SDS011;61000;48.120;11.548;2024-03-07T09:43:37;53.97;;;30.35;;
72864;SDS011;61000;48.120;11.548;2024-03-07T09:46:06;48.97;;;28.13;;
72864;SDS011;61000;48.120;11.548;2024-03-07T09:48:35;51.58;;;27.83;;
72864;SDS011;61000;48.120;11.548;2024-03-07T09:51:02;50.30;;;24.90;;
72864;SDS011;61000;48.120;11.548;2024-03-07T09:53:32;48.13;;;26.38;;
72864;SDS011;61000;48.120;11.548;2024-03-07T09:56:03;49.13;;;26.17;;
72864;SDS011;61000;48.120;11.548;2024-03-07T09:58:32;44.22;;;25.45;;
72864;SDS011;61000;48.120;11.548;2024-03-07T10:01:00;45.92;;;25.88;;
72864;SDS011;61000;48.120;11.548;2024-03-07T10:03:32;47.20;;;26.85;;
72864;SDS011;61000;48.120;11.548;2024-03-07T10:06:01;43.00;;;25.55;;
72864;SDS011;61000;48.120;11.548;2024-03-07T10:08:29;46.50;;;24.17;;
72864;SDS011;61000;48.120;11.548;2024-03-07T10:10:57;47.78;;;26.45;;
72864;SDS011;61000;48.120;11.548;2024-03-07T10:13:25;47.28;;;25.63;;
72864;SDS011;61000;48.120;11.548;2024-03-07T10:15:53;45.20;;;23.80;;
72864;SDS011;61000;48.120;11.548;2024-03-07T10:18:25;44.35;;;24.88;;
72864;SDS011;61000;48.120;11.548;2024-03-07T10:20:54;45.78;;;25.38;;
72864;SDS011;61000;48.120;11.548;2024-03-07T10:23:21;50.22;;;25.52;;
72864;SDS011;61000;48.120;11.548;2024-03-07T10:25:48;48.20;;;26.33;;
72864;SDS011;61000;48.120;11.548;2024-03-07T10:28:16;51.08;;;28.52;;
72864;SDS011;61000;48.120;11.548;2024-03-07T10:30:43;45.65;;;25.13;;
72864;SDS011;61000;48.120;11.548;2024-03-07T10:33:10;47.97;;;26.30;;
72864;SDS011;61000;48.120;11.548;2024-03-07T10:35:39;47.35;;;25.55;;
72864;SDS011;61000;48.120;11.548;2024-03-07T10:38:07;46.05;;;25.58;;
72864;SDS011;61000;48.120;11.548;2024-03-07T10:40:37;53.13;;;25.85;;
72864;SDS011;61000;48.120;11.548;2024-03-07T10:43:07;50.17;;;26.15;;
72864;SDS011;61000;48.120;11.548;2024-03-07T10:45:37;44.15;;;25.48;;
72864;SDS011;61000;48.120;11.548;2024-03-07T10:48:11;50.35;;;26.42;;
72864;SDS011;61000;48.120;11.548;2024-03-07T10:50:41;42.13;;;24.65;;
72864;SDS011;61000;48.120;11.548;2024-03-07T10:53:23;43.65;;;23.35;;
72864;SDS011;61000;48.120;11.548;2024-03-07T10:56:03;42.75;;;23.70;;
72864;SDS011;61000;48.120;11.548;2024-03-07T10:58:42;43.10;;;24.50;;
72864;SDS011;61000;48.120;11.548;2024-03-07T11:01:24;42.92;;;23.73;;
72864;SDS011;61000;48.120;11.548;2024-03-07T11:03:56;47.30;;;24.42;;
72864;SDS011;61000;48.120;11.548;2024-03-07T11:06:24;40.63;;;23.88;;
72864;SDS011;61000;48.120;11.548;2024-03-07T11:08:53;39.65;;;23.02;;
72864;SDS011;61000;48.120;11.548;2024-03-07T11:11:21;41.35;;;23.08;;
72864;SDS011;61000;48.120;11.548;2024-03-07T11:13:50;38.83;;;23.08;;
72864;SDS011;61000;48.120;11.548;2024-03-07T11:16:19;45.22;;;25.58;;
72864;SDS011;61000;48.120;11.548;2024-03-07T11:21:47;39.00;;;21.95;;
72864;SDS011;61000;48.120;11.548;2024-03-07T11:24:25;42.45;;;23.23;;
72864;SDS011;61000;48.120;11.548;2024-03-07T11:26:53;40.83;;;21.77;;
72864;SDS011;61000;48.120;11.548;2024-03-07T11:32:09;40.17;;;22.80;;
72864;SDS011;61000;48.120;11.548;2024-03-07T11:34:38;35.28;;;20.55;;
72864;SDS011;61000;48.120;11.548;2024-03-07T11:37:07;35.15;;;20.80;;
72864;SDS011;61000;48.120;11.548;2024-03-07T11:39:44;36.65;;;19.63;;
72864;SDS011;61000;48.120;11.548;2024-03-07T11:42:19;33.05;;;20.63;;
72864;SDS011;61000;48.120;11.548;2024-03-07T11:44:48;38.47;;;22.58;;
72864;SDS011;61000;48.120;11.548;2024-03-07T11:47:16;38.53;;;21.52;;
72864;SDS011;61000;48.120;11.548;2024-03-07T11:49:43;35.40;;;20.67;;
72864;SDS011;61000;48.120;11.548;2024-03-07T11:52:13;37.38;;;21.27;;
72864;SDS011;61000;48.120;11.548;2024-03-07T11:54:42;35.50;;;20.55;;
72864;SDS011;61000;48.120;11.548;2024-03-07T11:57:12;36.75;;;21.20;;
72864;SDS011;61000;48.120;11.548;2024-03-07T11:59:41;34.92;;;20.77;;
72864;SDS011;61000;48.120;11.548;2024-03-07T12:02:10;32.70;;;20.50;;
72864;SDS011;61000;48.120;11.548;2024-03-07T12:04:39;37.63;;;20.05;;
72864;SDS011;61000;48.120;11.548;2024-03-07T12:07:06;38.58;;;22.10;;
72864;SDS011;61000;48.120;11.548;2024-03-07T12:09:36;36.63;;;20.08;;
72864;SDS011;61000;48.120;11.548;2024-03-07T12:12:05;36.67;;;20.73;;
72864;SDS011;61000;48.120;11.548;2024-03-07T12:14:32;32.72;;;20.45;;
72864;SDS011;61000;48.120;11.548;2024-03-07T12:16:59;35.35;;;20.00;;
72864;SDS011;61000;48.120;11.548;2024-03-07T12:19:29;36.38;;;20.17;;
72864;SDS011;61000;48.120;11.548;2024-03-07T12:21:59;33.47;;;20.65;;
72864;SDS011;61000;48.120;11.548;2024-03-07T12:24:27;35.85;;;19.40;;
72864;SDS011;61000;48.120;11.548;2024-03-07T12:27:05;37.15;;;20.13;;
72864;SDS011;61000;48.120;11.548;2024-03-07T12:29:34;35.78;;;20.75;;
72864;SDS011;61000;48.120;11.548;2024-03-07T12:32:03;39.00;;;21.58;;
72864;SDS011;61000;48.120;11.548;2024-03-07T12:34:31;38.03;;;20.95;;
72864;SDS011;61000;48.120;11.548;2024-03-07T12:37:01;36.55;;;21.02;;
72864;SDS011;61000;48.120;11.548;2024-03-07T12:39:31;36.10;;;20.50;;
72864;SDS011;61000;48.120;11.548;2024-03-07T12:42:01;40.67;;;21.17;;
72864;SDS011;61000;48.120;11.548;2024-03-07T12:44:40;41.22;;;23.17;;
72864;SDS011;61000;48.120;11.548;2024-03-07T12:47:09;34.50;;;21.05;;
72864;SDS011;61000;48.120;11.548;2024-03-07T12:49:36;43.35;;;22.80;;
72864;SDS011;61000;48.120;11.548;2024-03-07T12:52:04;36.17;;;19.83;;
72864;SDS011;61000;48.120;11.548;2024-03-07T12:54:32;36.85;;;20.52;;
72864;SDS011;61000;48.120;11.548;2024-03-07T12:57:00;38.80;;;20.00;;
72864;SDS011;61000;48.120;11.548;2024-03-07T12:59:30;36.53;;;20.90;;
72864;SDS011;61000;48.120;11.548;2024-03-07T13:01:58;37.65;;;21.27;;
72864;SDS011;61000;48.120;11.548;2024-03-07T13:04:25;39.60;;;21.83;;
72864;SDS011;61000;48.120;11.548;2024-03-07T13:06:52;34.53;;;19.80;;
72864;SDS011;61000;48.120;11.548;2024-03-07T13:09:19;32.83;;;18.27;;
72864;SDS011;61000;48.120;11.548;2024-03-07T13:11:52;35.13;;;20.55;;
72864;SDS011;61000;48.120;11.548;2024-03-07T13:14:19;35.58;;;20.10;;
72864;SDS011;61000;48.120;11.548;2024-03-07T13:16:46;32.67;;;20.60;;
72864;SDS011;61000;48.120;11.548;2024-03-07T13:19:14;35.88;;;21.15;;
72864;SDS011;61000;48.120;11.548;2024-03-07T13:21:45;33.92;;;19.55;;
72864;SDS011;61000;48.120;11.548;2024-03-07T13:24:13;36.22;;;20.27;;
72864;SDS011;61000;48.120;11.548;2024-03-07T13:26:40;32.97;;;19.52;;
72864;SDS011;61000;48.120;11.548;2024-03-07T13:29:09;34.63;;;20.33;;
72864;SDS011;61000;48.120;11.548;2024-03-07T13:31:36;37.60;;;21.20;;
72864;SDS011;61000;48.120;11.548;2024-03-07T13:34:03;32.53;;;18.67;;
72864;SDS011;61000;48.120;11.548;2024-03-07T13:36:31;35.35;;;20.58;;
72864;SDS011;61000;48.120;11.548;2024-03-07T13:38:58;34.80;;;19.60;;
72864;SDS011;61000;48.120;11.548;2024-03-07T13:41:25;38.50;;;21.05;;
72864;SDS011;61000;48.120;11.548;2024-03-07T13:43:53;42.92;;;21.20;;
72864;SDS011;61000;48.120;11.548;2024-03-07T13:46:20;38.05;;;20.58;;
72864;SDS011;61000;48.120;11.548;2024-03-07T13:48:47;34.13;;;19.17;;
72864;SDS011;61000;48.120;11.548;2024-03-07T13:51:14;32.55;;;18.73;;
72864;SDS011;61000;48.120;11.548;2024-03-07T13:53:43;33.05;;;19.50;;
72864;SDS011;61000;48.120;11.548;2024-03-07T13:59:23;32.47;;;18.52;;
72864;SDS011;61000;48.120;11.548;2024-03-07T14:02:05;31.90;;;18.90;;
72864;SDS011;61000;48.120;11.548;2024-03-07T14:07:53;30.05;;;17.35;;
72864;SDS011;61000;48.120;11.548;2024-03-07T14:10:48;29.98;;;16.70;;
72864;SDS011;61000;48.120;11.548;2024-03-07T14:13:45;30.00;;;17.85;;
72864;SDS011;61000;48.120;11.548;2024-03-07T14:16:43;29.77;;;17.05;;
72864;SDS011;61000;48.120;11.548;2024-03-07T14:22:54;29.42;;;17.30;;
72864;SDS011;61000;48.120;11.548;2024-03-07T14:31:29;33.63;;;19.33;;
72864;SDS011;61000;48.120;11.548;2024-03-07T14:34:01;29.13;;;17.90;;
72864;SDS011;61000;48.120;11.548;2024-03-07T14:36:34;35.03;;;19.48;;
72864;SDS011;61000;48.120;11.548;2024-03-07T14:39:04;39.72;;;21.58;;